sensor_id;sensor_type;location;lat;lon;timestamp;P1;durP1;ratioP1;P2;durP2;ratioP2
28078;SDS011;15388;42.238;24.684;2023-03-22T00:01:42;48.03;;;28.13;;
28078;SDS011;15388;42.238;24.684;2023-03-22T00:04:07;47.85;;;29.60;;
28078;SDS011;15388;42.238;24.684;2023-03-22T00:06:33;48.60;;;29.73;;
28078;SDS011;15388;42.238;24.684;2023-03-22T00:08:58;44.85;;;28.50;;
28078;SDS011;15388;42.238;24.684;2023-03-22T00:11:25;56.22;;;29.10;;
28078;SDS011;15388;42.238;24.684;2023-03-22T00:13:51;44.17;;;26.98;;
28078;SDS011;15388;42.238;24.684;2023-03-22T00:16:17;43.35;;;28.48;;
28078;SDS011;15388;42.238;24.684;2023-03-22T00:18:43;53.63;;;30.55;;
28078;SDS011;15388;42.238;24.684;2023-03-22T00:21:12;60.38;;;33.08;;
28078;SDS011;15388;42.238;24.684;2023-03-22T00:23:38;52.40;;;30.92;;
28078;SDS011;15388;42.238;24.684;2023-03-22T00:26:04;50.55;;;32.08;;
28078;SDS011;15388;42.238;24.684;2023-03-22T00:28:29;47.78;;;31.45;;
28078;SDS011;15388;42.238;24.684;2023-03-22T00:30:56;51.47;;;32.08;;
28078;SDS011;15388;42.238;24.684;2023-03-22T00:33:22;52.58;;;30.25;;
28078;SDS011;15388;42.238;24.684;2023-03-22T00:35:48;59.45;;;32.67;;
28078;SDS011;15388;42.238;24.684;2023-03-22T00:38:13;53.60;;;33.40;;
28078;SDS011;15388;42.238;24.684;2023-03-22T00:40:39;55.75;;;34.35;;
28078;SDS011;15388;42.238;24.684;2023-03-22T00:43:05;53.17;;;31.70;;
28078;SDS011;15388;42.238;24.684;2023-03-22T00:45:30;56.05;;;31.90;;
28078;SDS011;15388;42.238;24.684;2023-03-22T00:47:55;54.92;;;33.28;;
28078;SDS011;15388;42.238;24.684;2023-03-22T00:50:20;62.08;;;36.38;;
28078;SDS011;15388;42.238;24.684;2023-03-22T00:52:46;58.28;;;34.10;;
28078;SDS011;15388;42.238;24.684;2023-03-22T00:55:11;62.95;;;36.13;;
28078;SDS011;15388;42.238;24.684;2023-03-22T00:57:36;58.20;;;34.17;;
28078;SDS011;15388;42.238;24.684;2023-03-22T01:00:02;53.75;;;34.53;;
28078;SDS011;15388;42.238;24.684;2023-03-22T01:02:34;58.50;;;33.97;;
28078;SDS011;15388;42.238;24.684;2023-03-22T01:04:59;51.15;;;33.15;;
28078;SDS011;15388;42.238;24.684;2023-03-22T01:07:25;55.78;;;34.50;;
28078;SDS011;15388;42.238;24.684;2023-03-22T01:09:50;57.35;;;35.50;;
28078;SDS011;15388;42.238;24.684;2023-03-22T01:12:16;55.17;;;34.63;;
28078;SDS011;15388;42.238;24.684;2023-03-22T01:14:41;67.30;;;35.30;;
28078;SDS011;15388;42.238;24.684;2023-03-22T01:17:07;55.03;;;34.13;;
28078;SDS011;15388;42.238;24.684;2023-03-22T01:19:33;58.33;;;34.10;;
28078;SDS011;15388;42.238;24.684;2023-03-22T01:21:58;49.30;;;32.13;;
28078;SDS011;15388;42.238;24.684;2023-03-22T01:24:24;54.97;;;33.50;;
28078;SDS011;15388;42.238;24.684;2023-03-22T01:26:49;62.53;;;36.45;;
28078;SDS011;15388;42.238;24.684;2023-03-22T01:29:15;55.25;;;35.33;;
28078;SDS011;15388;42.238;24.684;2023-03-22T01:31:41;60.53;;;35.40;;
28078;SDS011;15388;42.238;24.684;2023-03-22T01:34:06;65.97;;;36.42;;
28078;SDS011;15388;42.238;24.684;2023-03-22T01:36:32;56.80;;;35.25;;
28078;SDS011;15388;42.238;24.684;2023-03-22T01:38:57;59.33;;;37.78;;
28078;SDS011;15388;42.238;24.684;2023-03-22T01:41:23;62.88;;;37.10;;
28078;SDS011;15388;42.238;24.684;2023-03-22T01:44:11;59.95;;;34.28;;
28078;SDS011;15388;42.238;24.684;2023-03-22T01:49:02;62.23;;;36.07;;
28078;SDS011;15388;42.238;24.684;2023-03-22T01:51:28;62.55;;;38.30;;
28078;SDS011;15388;42.238;24.684;2023-03-22T01:53:55;62.53;;;38.47;;
28078;SDS011;15388;42.238;24.684;2023-03-22T01:56:22;66.13;;;38.35;;
28078;SDS011;15388;42.238;24.684;2023-03-22T01:58:48;61.70;;;37.55;;
28078;SDS011;15388;42.238;24.684;2023-03-22T02:01:14;64.13;;;36.78;;
28078;SDS011;15388;42.238;24.684;2023-03-22T02:03:43;64.80;;;37.45;;
28078;SDS011;15388;42.238;24.684;2023-03-22T02:06:10;57.42;;;35.20;;
28078;SDS011;15388;42.238;24.684;2023-03-22T02:08:35;60.05;;;35.63;;
28078;SDS011;15388;42.238;24.684;2023-03-22T02:11:00;59.25;;;35.53;;
28078;SDS011;15388;42.238;24.684;2023-03-22T02:34:10;50.10;;;35.00;;
28078;SDS011;15388;42.238;24.684;2023-03-22T02:44:39;51.75;;;33.78;;
28078;SDS011;15388;42.238;24.684;2023-03-22T02:47:18;55.80;;;34.95;;
28078;SDS011;15388;42.238;24.684;2023-03-22T02:49:51;52.97;;;32.55;;
28078;SDS011;15388;42.238;24.684;2023-03-22T02:52:19;57.70;;;34.92;;
28078;SDS011;15388;42.238;24.684;2023-03-22T02:54:54;55.90;;;33.97;;
28078;SDS011;15388;42.238;24.684;2023-03-22T02:59:49;58.55;;;36.58;;
28078;SDS011;15388;42.238;24.684;2023-03-22T03:02:16;58.75;;;35.78;;
28078;SDS011;15388;42.238;24.684;2023-03-22T03:04:45;59.95;;;35.05;;
28078;SDS011;15388;42.238;24.684;2023-03-22T03:07:13;58.03;;;34.92;;
28078;SDS011;15388;42.238;24.684;2023-03-22T03:09:40;58.50;;;37.30;;
28078;SDS011;15388;42.238;24.684;2023-03-22T03:12:24;55.85;;;36.13;;
28078;SDS011;15388;42.238;24.684;2023-03-22T03:14:54;55.08;;;35.55;;
28078;SDS011;15388;42.238;24.684;2023-03-22T03:27:36;60.30;;;38.22;;
28078;SDS011;15388;42.238;24.684;2023-03-22T03:32:51;55.72;;;35.33;;
28078;SDS011;15388;42.238;24.684;2023-03-22T03:35:22;58.05;;;34.70;;
28078;SDS011;15388;42.238;24.684;2023-03-22T03:37:52;61.13;;;36.13;;
28078;SDS011;15388;42.238;24.684;2023-03-22T03:40:31;66.68;;;40.10;;
28078;SDS011;15388;42.238;24.684;2023-03-22T03:42:58;62.13;;;41.45;;
28078;SDS011;15388;42.238;24.684;2023-03-22T03:45:24;54.97;;;36.97;;
28078;SDS011;15388;42.238;24.684;2023-03-22T03:47:50;54.50;;;39.05;;
28078;SDS011;15388;42.238;24.684;2023-03-22T03:50:21;66.57;;;40.58;;
28078;SDS011;15388;42.238;24.684;2023-03-22T03:52:47;65.13;;;37.97;;
28078;SDS011;15388;42.238;24.684;2023-03-22T03:55:12;57.55;;;37.03;;
28078;SDS011;15388;42.238;24.684;2023-03-22T03:57:37;60.53;;;38.25;;
28078;SDS011;15388;42.238;24.684;2023-03-22T04:00:03;61.53;;;37.38;;
28078;SDS011;15388;42.238;24.684;2023-03-22T04:02:28;65.53;;;38.03;;
28078;SDS011;15388;42.238;24.684;2023-03-22T04:04:53;62.85;;;37.35;;
28078;SDS011;15388;42.238;24.684;2023-03-22T04:07:19;59.53;;;38.15;;
28078;SDS011;15388;42.238;24.684;2023-03-22T04:09:44;59.97;;;39.05;;
28078;SDS011;15388;42.238;24.684;2023-03-22T04:12:09;54.40;;;37.78;;
28078;SDS011;15388;42.238;24.684;2023-03-22T04:14:35;60.22;;;39.33;;
28078;SDS011;15388;42.238;24.684;2023-03-22T04:17:00;60.67;;;38.97;;
28078;SDS011;15388;42.238;24.684;2023-03-22T04:19:25;57.83;;;40.25;;
28078;SDS011;15388;42.238;24.684;2023-03-22T04:21:51;55.88;;;37.00;;
28078;SDS011;15388;42.238;24.684;2023-03-22T04:24:17;64.43;;;39.85;;
28078;SDS011;15388;42.238;24.684;2023-03-22T04:26:42;60.28;;;38.83;;
28078;SDS011;15388;42.238;24.684;2023-03-22T04:29:07;61.40;;;37.58;;
28078;SDS011;15388;42.238;24.684;2023-03-22T04:31:33;58.47;;;37.58;;
28078;SDS011;15388;42.238;24.684;2023-03-22T04:36:33;56.97;;;36.22;;
28078;SDS011;15388;42.238;24.684;2023-03-22T04:39:02;58.20;;;37.90;;
28078;SDS011;15388;42.238;24.684;2023-03-22T04:41:29;70.47;;;39.97;;
28078;SDS011;15388;42.238;24.684;2023-03-22T04:43:55;69.55;;;41.45;;
28078;SDS011;15388;42.238;24.684;2023-03-22T04:46:22;62.53;;;40.17;;
28078;SDS011;15388;42.238;24.684;2023-03-22T04:48:47;60.22;;;39.70;;
28078;SDS011;15388;42.238;24.684;2023-03-22T04:51:12;72.93;;;42.28;;
28078;SDS011;15388;42.238;24.684;2023-03-22T04:53:37;75.03;;;44.60;;
28078;SDS011;15388;42.238;24.684;2023-03-22T04:56:04;72.18;;;44.60;;
28078;SDS011;15388;42.238;24.684;2023-03-22T04:58:31;72.47;;;45.00;;
28078;SDS011;15388;42.238;24.684;2023-03-22T05:00:56;66.32;;;43.20;;
28078;SDS011;15388;42.238;24.684;2023-03-22T05:03:22;70.95;;;43.47;;
28078;SDS011;15388;42.238;24.684;2023-03-22T05:05:48;68.07;;;43.55;;
28078;SDS011;15388;42.238;24.684;2023-03-22T05:08:14;70.60;;;43.78;;
28078;SDS011;15388;42.238;24.684;2023-03-22T05:10:40;73.10;;;42.58;;
28078;SDS011;15388;42.238;24.684;2023-03-22T05:13:05;66.40;;;43.65;;
28078;SDS011;15388;42.238;24.684;2023-03-22T05:15:30;65.25;;;42.97;;
28078;SDS011;15388;42.238;24.684;2023-03-22T05:17:56;77.63;;;47.35;;
28078;SDS011;15388;42.238;24.684;2023-03-22T05:20:21;91.53;;;52.80;;
28078;SDS011;15388;42.238;24.684;2023-03-22T05:22:46;92.78;;;54.33;;
28078;SDS011;15388;42.238;24.684;2023-03-22T05:25:14;92.43;;;53.85;;
28078;SDS011;15388;42.238;24.684;2023-03-22T05:27:39;86.40;;;50.00;;
28078;SDS011;15388;42.238;24.684;2023-03-22T05:30:05;85.50;;;50.80;;
28078;SDS011;15388;42.238;24.684;2023-03-22T05:32:31;113.30;;;61.75;;
28078;SDS011;15388;42.238;24.684;2023-03-22T05:34:56;94.25;;;51.22;;
28078;SDS011;15388;42.238;24.684;2023-03-22T05:37:21;79.28;;;49.78;;
28078;SDS011;15388;42.238;24.684;2023-03-22T05:39:47;86.75;;;49.53;;
28078;SDS011;15388;42.238;24.684;2023-03-22T05:42:12;81.10;;;49.42;;
28078;SDS011;15388;42.238;24.684;2023-03-22T05:44:37;85.68;;;47.47;;
28078;SDS011;15388;42.238;24.684;2023-03-22T05:47:02;80.30;;;45.67;;
28078;SDS011;15388;42.238;24.684;2023-03-22T05:49:28;83.00;;;46.63;;
28078;SDS011;15388;42.238;24.684;2023-03-22T05:51:55;75.20;;;45.30;;
28078;SDS011;15388;42.238;24.684;2023-03-22T05:54:20;80.88;;;43.95;;
28078;SDS011;15388;42.238;24.684;2023-03-22T05:56:45;84.07;;;47.45;;
28078;SDS011;15388;42.238;24.684;2023-03-22T05:59:11;82.13;;;46.08;;
28078;SDS011;15388;42.238;24.684;2023-03-22T06:01:36;77.45;;;45.28;;
28078;SDS011;15388;42.238;24.684;2023-03-22T06:04:04;74.70;;;47.53;;
28078;SDS011;15388;42.238;24.684;2023-03-22T06:06:29;82.47;;;47.30;;
28078;SDS011;15388;42.238;24.684;2023-03-22T06:08:55;77.78;;;44.35;;
28078;SDS011;15388;42.238;24.684;2023-03-22T06:11:20;79.70;;;45.08;;
28078;SDS011;15388;42.238;24.684;2023-03-22T06:13:46;96.97;;;51.42;;
28078;SDS011;15388;42.238;24.684;2023-03-22T06:16:12;78.63;;;44.42;;
28078;SDS011;15388;42.238;24.684;2023-03-22T06:18:37;73.35;;;40.10;;
28078;SDS011;15388;42.238;24.684;2023-03-22T06:21:02;63.63;;;39.83;;
28078;SDS011;15388;42.238;24.684;2023-03-22T06:23:27;69.13;;;38.70;;
28078;SDS011;15388;42.238;24.684;2023-03-22T06:25:53;63.65;;;40.20;;
28078;SDS011;15388;42.238;24.684;2023-03-22T06:28:18;66.07;;;40.20;;
28078;SDS011;15388;42.238;24.684;2023-03-22T06:30:43;74.43;;;41.22;;
28078;SDS011;15388;42.238;24.684;2023-03-22T06:33:09;63.85;;;38.22;;
28078;SDS011;15388;42.238;24.684;2023-03-22T06:35:34;67.35;;;41.50;;
28078;SDS011;15388;42.238;24.684;2023-03-22T06:38:00;66.15;;;42.33;;
28078;SDS011;15388;42.238;24.684;2023-03-22T06:40:25;61.13;;;40.28;;
28078;SDS011;15388;42.238;24.684;2023-03-22T06:42:51;67.38;;;37.72;;
28078;SDS011;15388;42.238;24.684;2023-03-22T06:45:18;63.42;;;38.13;;
28078;SDS011;15388;42.238;24.684;2023-03-22T06:47:43;62.45;;;40.47;;
28078;SDS011;15388;42.238;24.684;2023-03-22T06:50:09;65.70;;;41.03;;
28078;SDS011;15388;42.238;24.684;2023-03-22T06:52:34;65.35;;;41.47;;
28078;SDS011;15388;42.238;24.684;2023-03-22T06:55:00;61.13;;;39.25;;
28078;SDS011;15388;42.238;24.684;2023-03-22T06:57:25;66.97;;;38.45;;
28078;SDS011;15388;42.238;24.684;2023-03-22T06:59:50;66.82;;;40.53;;
28078;SDS011;15388;42.238;24.684;2023-03-22T07:02:15;70.80;;;42.85;;
28078;SDS011;15388;42.238;24.684;2023-03-22T07:04:41;66.53;;;41.22;;
28078;SDS011;15388;42.238;24.684;2023-03-22T07:07:06;66.05;;;43.38;;
28078;SDS011;15388;42.238;24.684;2023-03-22T07:09:31;65.25;;;43.25;;
28078;SDS011;15388;42.238;24.684;2023-03-22T07:11:57;70.15;;;43.35;;
28078;SDS011;15388;42.238;24.684;2023-03-22T07:14:22;70.88;;;44.72;;
28078;SDS011;15388;42.238;24.684;2023-03-22T07:16:47;73.20;;;44.70;;
28078;SDS011;15388;42.238;24.684;2023-03-22T07:19:12;75.43;;;43.30;;
28078;SDS011;15388;42.238;24.684;2023-03-22T07:21:38;85.80;;;49.72;;
28078;SDS011;15388;42.238;24.684;2023-03-22T07:24:04;73.65;;;47.10;;
28078;SDS011;15388;42.238;24.684;2023-03-22T07:26:30;68.32;;;44.00;;
28078;SDS011;15388;42.238;24.684;2023-03-22T07:28:56;72.15;;;45.67;;
28078;SDS011;15388;42.238;24.684;2023-03-22T07:31:21;68.45;;;40.60;;
28078;SDS011;15388;42.238;24.684;2023-03-22T07:33:46;81.63;;;47.33;;
28078;SDS011;15388;42.238;24.684;2023-03-22T07:36:12;82.43;;;47.95;;
28078;SDS011;15388;42.238;24.684;2023-03-22T07:38:37;83.85;;;49.17;;
28078;SDS011;15388;42.238;24.684;2023-03-22T07:41:02;91.65;;;52.33;;
28078;SDS011;15388;42.238;24.684;2023-03-22T07:43:28;89.75;;;47.67;;
28078;SDS011;15388;42.238;24.684;2023-03-22T07:45:53;82.93;;;45.70;;
28078;SDS011;15388;42.238;24.684;2023-03-22T07:48:19;68.70;;;43.13;;
28078;SDS011;15388;42.238;24.684;2023-03-22T07:50:44;71.80;;;42.53;;
28078;SDS011;15388;42.238;24.684;2023-03-22T07:53:09;70.15;;;41.80;;
28078;SDS011;15388;42.238;24.684;2023-03-22T07:55:35;67.88;;;45.88;;
28078;SDS011;15388;42.238;24.684;2023-03-22T07:58:00;71.93;;;44.35;;
28078;SDS011;15388;42.238;24.684;2023-03-22T08:00:26;61.95;;;41.33;;
28078;SDS011;15388;42.238;24.684;2023-03-22T08:02:51;62.97;;;41.17;;
28078;SDS011;15388;42.238;24.684;2023-03-22T08:05:16;70.88;;;41.10;;
28078;SDS011;15388;42.238;24.684;2023-03-22T08:07:42;58.75;;;39.67;;
28078;SDS011;15388;42.238;24.684;2023-03-22T08:10:07;81.18;;;45.50;;
28078;SDS011;15388;42.238;24.684;2023-03-22T08:12:32;67.47;;;38.85;;
28078;SDS011;15388;42.238;24.684;2023-03-22T08:14:58;61.08;;;38.30;;
28078;SDS011;15388;42.238;24.684;2023-03-22T08:17:23;64.03;;;40.60;;
28078;SDS011;15388;42.238;24.684;2023-03-22T08:19:51;62.50;;;40.03;;
28078;SDS011;15388;42.238;24.684;2023-03-22T08:22:18;62.15;;;37.75;;
28078;SDS011;15388;42.238;24.684;2023-03-22T08:24:47;63.58;;;39.38;;
28078;SDS011;15388;42.238;24.684;2023-03-22T08:27:12;61.42;;;39.45;;
28078;SDS011;15388;42.238;24.684;2023-03-22T08:29:38;61.75;;;36.95;;
28078;SDS011;15388;42.238;24.684;2023-03-22T08:32:03;69.65;;;41.47;;
28078;SDS011;15388;42.238;24.684;2023-03-22T08:34:29;49.67;;;35.08;;
28078;SDS011;15388;42.238;24.684;2023-03-22T08:36:55;64.85;;;40.90;;
28078;SDS011;15388;42.238;24.684;2023-03-22T08:39:20;56.80;;;37.90;;
28078;SDS011;15388;42.238;24.684;2023-03-22T08:41:46;54.72;;;35.28;;
28078;SDS011;15388;42.238;24.684;2023-03-22T08:44:11;63.28;;;37.20;;
28078;SDS011;15388;42.238;24.684;2023-03-22T08:46:36;61.60;;;38.20;;
28078;SDS011;15388;42.238;24.684;2023-03-22T08:49:02;79.40;;;44.35;;
28078;SDS011;15388;42.238;24.684;2023-03-22T08:51:27;118.45;;;64.05;;
28078;SDS011;15388;42.238;24.684;2023-03-22T08:53:53;221.40;;;96.72;;
28078;SDS011;15388;42.238;24.684;2023-03-22T08:56:18;69.30;;;42.40;;
28078;SDS011;15388;42.238;24.684;2023-03-22T08:58:46;78.43;;;45.10;;
28078;SDS011;15388;42.238;24.684;2023-03-22T09:01:12;57.58;;;37.67;;
28078;SDS011;15388;42.238;24.684;2023-03-22T09:03:38;62.90;;;42.90;;
28078;SDS011;15388;42.238;24.684;2023-03-22T09:06:03;71.97;;;42.95;;
28078;SDS011;15388;42.238;24.684;2023-03-22T09:08:29;72.10;;;41.95;;
28078;SDS011;15388;42.238;24.684;2023-03-22T09:10:54;59.33;;;39.05;;
28078;SDS011;15388;42.238;24.684;2023-03-22T09:13:20;56.63;;;36.65;;
28078;SDS011;15388;42.238;24.684;2023-03-22T09:15:45;57.55;;;38.40;;
28078;SDS011;15388;42.238;24.684;2023-03-22T09:18:10;51.35;;;33.38;;
28078;SDS011;15388;42.238;24.684;2023-03-22T09:20:36;47.80;;;33.03;;
28078;SDS011;15388;42.238;24.684;2023-03-22T09:23:02;50.47;;;33.63;;
28078;SDS011;15388;42.238;24.684;2023-03-22T09:25:27;46.63;;;33.05;;
28078;SDS011;15388;42.238;24.684;2023-03-22T09:27:52;51.33;;;32.58;;
28078;SDS011;15388;42.238;24.684;2023-03-22T09:30:17;52.28;;;33.30;;
28078;SDS011;15388;42.238;24.684;2023-03-22T09:32:43;53.00;;;34.13;;
28078;SDS011;15388;42.238;24.684;2023-03-22T09:35:09;53.00;;;33.88;;
28078;SDS011;15388;42.238;24.684;2023-03-22T09:37:34;48.70;;;31.90;;
28078;SDS011;15388;42.238;24.684;2023-03-22T09:40:00;60.58;;;41.13;;
28078;SDS011;15388;42.238;24.684;2023-03-22T09:44:57;49.60;;;31.40;;
28078;SDS011;15388;42.238;24.684;2023-03-22T09:47:30;45.57;;;33.33;;
28078;SDS011;15388;42.238;24.684;2023-03-22T09:50:00;42.50;;;31.20;;
28078;SDS011;15388;42.238;24.684;2023-03-22T09:52:28;47.33;;;31.20;;
28078;SDS011;15388;42.238;24.684;2023-03-22T09:54:53;44.45;;;32.33;;
28078;SDS011;15388;42.238;24.684;2023-03-22T10:00:02;49.40;;;34.90;;
28078;SDS011;15388;42.238;24.684;2023-03-22T10:07:52;52.95;;;33.08;;
28078;SDS011;15388;42.238;24.684;2023-03-22T10:10:22;46.85;;;32.10;;
28078;SDS011;15388;42.238;24.684;2023-03-22T10:15:34;41.90;;;28.80;;
28078;SDS011;15388;42.238;24.684;2023-03-22T10:18:01;45.20;;;29.58;;
28078;SDS011;15388;42.238;24.684;2023-03-22T10:20:47;42.97;;;31.00;;
28078;SDS011;15388;42.238;24.684;2023-03-22T10:23:15;50.65;;;36.33;;
28078;SDS011;15388;42.238;24.684;2023-03-22T10:25:41;43.70;;;29.90;;
28078;SDS011;15388;42.238;24.684;2023-03-22T10:28:24;35.63;;;25.80;;
28078;SDS011;15388;42.238;24.684;2023-03-22T10:30:54;40.67;;;26.83;;
28078;SDS011;15388;42.238;24.684;2023-03-22T10:35:51;35.83;;;23.65;;
28078;SDS011;15388;42.238;24.684;2023-03-22T10:38:18;26.88;;;20.45;;
28078;SDS011;15388;42.238;24.684;2023-03-22T10:40:45;32.25;;;24.50;;
28078;SDS011;15388;42.238;24.684;2023-03-22T10:43:15;29.92;;;22.15;;
28078;SDS011;15388;42.238;24.684;2023-03-22T10:45:42;29.60;;;21.35;;
28078;SDS011;15388;42.238;24.684;2023-03-22T10:48:12;26.73;;;16.98;;
28078;SDS011;15388;42.238;24.684;2023-03-22T10:50:39;30.38;;;22.98;;
28078;SDS011;15388;42.238;24.684;2023-03-22T10:53:07;20.35;;;15.85;;
28078;SDS011;15388;42.238;24.684;2023-03-22T10:55:42;22.52;;;18.52;;
28078;SDS011;15388;42.238;24.684;2023-03-22T11:00:32;29.53;;;20.77;;
28078;SDS011;15388;42.238;24.684;2023-03-22T11:02:58;26.95;;;19.50;;
28078;SDS011;15388;42.238;24.684;2023-03-22T11:05:25;22.05;;;17.23;;
28078;SDS011;15388;42.238;24.684;2023-03-22T11:07:51;23.83;;;17.40;;
28078;SDS011;15388;42.238;24.684;2023-03-22T11:10:29;24.88;;;18.35;;
28078;SDS011;15388;42.238;24.684;2023-03-22T11:15:31;18.15;;;13.38;;
28078;SDS011;15388;42.238;24.684;2023-03-22T11:17:58;66.50;;;37.67;;
28078;SDS011;15388;42.238;24.684;2023-03-22T11:20:24;18.25;;;13.75;;
28078;SDS011;15388;42.238;24.684;2023-03-22T11:22:49;20.85;;;13.73;;
28078;SDS011;15388;42.238;24.684;2023-03-22T11:25:48;30.83;;;19.00;;
28078;SDS011;15388;42.238;24.684;2023-03-22T11:28:08;24.42;;;14.35;;
28078;SDS011;15388;42.238;24.684;2023-03-22T11:30:34;19.67;;;14.05;;
28078;SDS011;15388;42.238;24.684;2023-03-22T11:33:19;51.97;;;28.33;;
28078;SDS011;15388;42.238;24.684;2023-03-22T11:35:45;35.95;;;21.95;;
28078;SDS011;15388;42.238;24.684;2023-03-22T11:38:25;23.88;;;18.25;;
28078;SDS011;15388;42.238;24.684;2023-03-22T11:41:00;18.33;;;14.43;;
28078;SDS011;15388;42.238;24.684;2023-03-22T11:43:36;16.33;;;13.55;;
28078;SDS011;15388;42.238;24.684;2023-03-22T11:46:03;28.52;;;18.95;;
28078;SDS011;15388;42.238;24.684;2023-03-22T11:48:29;17.45;;;13.43;;
28078;SDS011;15388;42.238;24.684;2023-03-22T11:51:06;20.40;;;16.42;;
28078;SDS011;15388;42.238;24.684;2023-03-22T11:53:33;26.45;;;19.08;;
28078;SDS011;15388;42.238;24.684;2023-03-22T11:56:00;23.05;;;16.23;;
28078;SDS011;15388;42.238;24.684;2023-03-22T11:58:28;17.10;;;13.30;;
28078;SDS011;15388;42.238;24.684;2023-03-22T12:00:57;33.45;;;21.38;;
28078;SDS011;15388;42.238;24.684;2023-03-22T12:03:25;42.33;;;26.23;;
28078;SDS011;15388;42.238;24.684;2023-03-22T12:05:51;20.20;;;14.25;;
28078;SDS011;15388;42.238;24.684;2023-03-22T12:08:29;36.22;;;22.73;;
28078;SDS011;15388;42.238;24.684;2023-03-22T12:11:24;27.50;;;20.63;;
28078;SDS011;15388;42.238;24.684;2023-03-22T12:13:47;24.50;;;18.35;;
28078;SDS011;15388;42.238;24.684;2023-03-22T12:16:14;19.02;;;16.17;;
28078;SDS011;15388;42.238;24.684;2023-03-22T12:18:49;26.42;;;19.27;;
28078;SDS011;15388;42.238;24.684;2023-03-22T12:21:15;29.75;;;23.10;;
28078;SDS011;15388;42.238;24.684;2023-03-22T12:23:40;37.90;;;25.38;;
28078;SDS011;15388;42.238;24.684;2023-03-22T12:28:39;19.67;;;16.30;;
28078;SDS011;15388;42.238;24.684;2023-03-22T12:31:11;19.15;;;14.55;;
28078;SDS011;15388;42.238;24.684;2023-03-22T12:33:44;17.13;;;13.95;;
28078;SDS011;15388;42.238;24.684;2023-03-22T12:36:13;16.40;;;13.20;;
28078;SDS011;15388;42.238;24.684;2023-03-22T12:41:10;19.38;;;13.77;;
28078;SDS011;15388;42.238;24.684;2023-03-22T12:43:55;18.40;;;13.55;;
28078;SDS011;15388;42.238;24.684;2023-03-22T12:46:27;13.63;;;12.07;;
28078;SDS011;15388;42.238;24.684;2023-03-22T12:49:04;16.23;;;12.00;;
28078;SDS011;15388;42.238;24.684;2023-03-22T12:51:30;15.13;;;11.80;;
28078;SDS011;15388;42.238;24.684;2023-03-22T12:53:56;13.63;;;10.77;;
28078;SDS011;15388;42.238;24.684;2023-03-22T12:56:26;11.57;;;8.38;;
28078;SDS011;15388;42.238;24.684;2023-03-22T12:58:58;13.20;;;10.57;;
28078;SDS011;15388;42.238;24.684;2023-03-22T13:01:30;13.88;;;10.70;;
28078;SDS011;15388;42.238;24.684;2023-03-22T13:03:57;21.25;;;11.45;;
28078;SDS011;15388;42.238;24.684;2023-03-22T13:06:33;14.18;;;10.60;;
28078;SDS011;15388;42.238;24.684;2023-03-22T13:09:19;9.43;;;7.75;;
28078;SDS011;15388;42.238;24.684;2023-03-22T13:12:24;14.17;;;9.70;;
28078;SDS011;15388;42.238;24.684;2023-03-22T13:22:26;9.95;;;8.85;;
28078;SDS011;15388;42.238;24.684;2023-03-22T13:27:51;7.60;;;6.80;;
28078;SDS011;15388;42.238;24.684;2023-03-22T13:38:00;7.80;;;6.47;;
28078;SDS011;15388;42.238;24.684;2023-03-22T13:43:20;8.00;;;7.13;;
28078;SDS011;15388;42.238;24.684;2023-03-22T13:51:47;9.25;;;5.60;;
28078;SDS011;15388;42.238;24.684;2023-03-22T14:01:35;6.90;;;5.13;;
28078;SDS011;15388;42.238;24.684;2023-03-22T14:04:09;11.93;;;7.47;;
28078;SDS011;15388;42.238;24.684;2023-03-22T14:06:40;8.55;;;5.57;;
28078;SDS011;15388;42.238;24.684;2023-03-22T14:09:11;8.30;;;5.68;;
28078;SDS011;15388;42.238;24.684;2023-03-22T14:14:10;9.52;;;6.40;;
28078;SDS011;15388;42.238;24.684;2023-03-22T14:16:47;8.80;;;7.20;;
28078;SDS011;15388;42.238;24.684;2023-03-22T14:19:17;7.93;;;6.55;;
28078;SDS011;15388;42.238;24.684;2023-03-22T14:21:45;10.55;;;8.02;;
28078;SDS011;15388;42.238;24.684;2023-03-22T14:24:12;51.95;;;32.95;;
28078;SDS011;15388;42.238;24.684;2023-03-22T14:26:39;7.65;;;5.57;;
28078;SDS011;15388;42.238;24.684;2023-03-22T14:29:12;40.28;;;30.83;;
28078;SDS011;15388;42.238;24.684;2023-03-22T14:31:40;8.48;;;7.10;;
28078;SDS011;15388;42.238;24.684;2023-03-22T14:34:07;8.02;;;7.20;;
28078;SDS011;15388;42.238;24.684;2023-03-22T14:36:37;8.77;;;6.03;;
28078;SDS011;15388;42.238;24.684;2023-03-22T14:39:04;11.02;;;8.43;;
28078;SDS011;15388;42.238;24.684;2023-03-22T14:41:32;6.43;;;5.63;;
28078;SDS011;15388;42.238;24.684;2023-03-22T14:43:58;8.00;;;6.07;;
28078;SDS011;15388;42.238;24.684;2023-03-22T14:46:29;6.25;;;5.65;;
28078;SDS011;15388;42.238;24.684;2023-03-22T14:48:58;8.85;;;7.47;;
28078;SDS011;15388;42.238;24.684;2023-03-22T14:51:31;8.90;;;7.80;;
28078;SDS011;15388;42.238;24.684;2023-03-22T14:53:58;12.88;;;9.25;;
28078;SDS011;15388;42.238;24.684;2023-03-22T14:56:29;11.55;;;8.65;;
28078;SDS011;15388;42.238;24.684;2023-03-22T14:58:55;48.13;;;27.40;;
28078;SDS011;15388;42.238;24.684;2023-03-22T15:01:23;18.70;;;12.77;;
28078;SDS011;15388;42.238;24.684;2023-03-22T15:06:14;31.95;;;19.20;;
28078;SDS011;15388;42.238;24.684;2023-03-22T15:08:43;20.05;;;12.88;;
28078;SDS011;15388;42.238;24.684;2023-03-22T15:11:08;20.88;;;12.02;;
28078;SDS011;15388;42.238;24.684;2023-03-22T15:13:36;39.03;;;23.67;;
28078;SDS011;15388;42.238;24.684;2023-03-22T15:16:02;26.58;;;16.63;;
28078;SDS011;15388;42.238;24.684;2023-03-22T15:18:29;40.15;;;22.38;;
28078;SDS011;15388;42.238;24.684;2023-03-22T15:20:54;27.23;;;14.07;;
28078;SDS011;15388;42.238;24.684;2023-03-22T15:23:22;31.85;;;18.23;;
28078;SDS011;15388;42.238;24.684;2023-03-22T15:25:54;10.60;;;8.38;;
28078;SDS011;15388;42.238;24.684;2023-03-22T15:28:23;11.05;;;6.72;;
28078;SDS011;15388;42.238;24.684;2023-03-22T15:30:50;8.40;;;5.82;;
28078;SDS011;15388;42.238;24.684;2023-03-22T15:33:20;9.85;;;7.18;;
28078;SDS011;15388;42.238;24.684;2023-03-22T15:35:47;8.15;;;6.10;;
28078;SDS011;15388;42.238;24.684;2023-03-22T15:38:12;7.35;;;6.07;;
28078;SDS011;15388;42.238;24.684;2023-03-22T15:48:39;8.52;;;7.20;;
28078;SDS011;15388;42.238;24.684;2023-03-22T15:51:05;12.15;;;7.60;;
28078;SDS011;15388;42.238;24.684;2023-03-22T15:53:31;7.88;;;6.82;;
28078;SDS011;15388;42.238;24.684;2023-03-22T15:55:58;10.63;;;8.25;;
28078;SDS011;15388;42.238;24.684;2023-03-22T15:58:33;17.50;;;12.68;;
28078;SDS011;15388;42.238;24.684;2023-03-22T16:01:10;20.38;;;14.52;;
28078;SDS011;15388;42.238;24.684;2023-03-22T16:03:39;22.95;;;14.57;;
28078;SDS011;15388;42.238;24.684;2023-03-22T16:06:07;27.83;;;15.60;;
28078;SDS011;15388;42.238;24.684;2023-03-22T16:08:33;30.98;;;17.40;;
28078;SDS011;15388;42.238;24.684;2023-03-22T16:10:58;27.33;;;15.55;;
28078;SDS011;15388;42.238;24.684;2023-03-22T16:13:23;30.92;;;14.95;;
28078;SDS011;15388;42.238;24.684;2023-03-22T16:15:49;20.23;;;16.02;;